McLean, Nebraska
Current Conditions -  °F | °C
As of 11:15 AM on Friday 19 Dec 2014 (Local Time) from KLCG Reporting Station
Overcast Overcast  
Wind Chill: 20°   Ceiling: 900
Heat Index: 31°   Visibility: 7mi
Dew Point: 28°   Wind: 15mph
Humidity: 88%   Direction: 190°S
Pressure: 30.17"   Gusts: NA
Location:  42.39°N, 97.47°W
Report Text: KLCG 191715Z AUTO 19013KT 7SM OVC009 00/M02 A3017 RMK AO2 T10051022
Loading
Personal Weather Stations






























Interactive Weather Map New forecast layout! Learn more

10-Day Weather Forecast

Advertisements
Track Severe Weather on mobile